Arlington, Arizona
Current Conditions -  °F | °C
As of 9:35 AM on Thursday 30 Oct 2014 (Local Time) from KBXK Reporting Station
Clear Clear  
Wind Chill: 70°   Ceiling: Unl
Heat Index: 70°   Visibility: 9mi
Dew Point: 46°   Wind: 3mph
Humidity: 43%   Direction: 190°S
Pressure: 30.04"   Gusts: NA
Location:  33.33°N, 112.77°W
Report Text: KBXK 301635Z AUTO 19003KT 9SM CLR 21/08 A3004 RMK AO1
Loading
Personal Weather Stations






























Interactive Weather Map
Tropical Storm Tracking
New forecast layout! Learn more

10-Day Weather Forecast

Advertisements
Track Severe Weather on mobile